Time;durP1;ratioP1;P1;durP2;ratioP2;P2;SDS_P1;SDS_P2;PMS_P1;PMS_P2;Temp;Humidity;BMP_temperature;BMP_pressure;BME280_temperature;BME280_humidity;BME280_pressure;Samples;Min_cycle;Max_cycle;Signal;HPM_P1;HPM_P2
2022/11/30 00:00:05;;;;;;;0.00;0.00;;;;;;;6.63;100.00;99899.09;323439;30;967;-73
2022/11/30 00:00:16;;;;;;;0.00;0.00;;;;;;;6.62;100.00;99897.41;320591;30;2287;-72
2022/11/30 00:00:27;;;;;;;0.00;0.00;;;;;;;6.63;100.00;99899.09;318702;30;2786;-73
2022/11/30 00:00:37;;;;;;;0.00;0.00;;;;;;;6.64;100.00;99900.81;321716;30;5083;-72
2022/11/30 00:00:48;;;;;;;0.00;0.00;;;;;;;6.63;100.00;99901.72;326396;30;6180;-72
2022/11/30 00:00:58;;;;;;;0.00;0.00;;;;;;;6.63;100.00;99899.97;326474;30;2845;-72
2022/11/30 00:01:26;;;;;;;0.00;0.00;;;;;;;6.64;100.00;99903.41;324852;30;2199;-73
2022/11/30 00:01:37;;;;;;;0.20;0.10;;;;;;;6.64;100.00;99899.06;324543;30;1359;-73
2022/11/30 00:01:47;;;;;;;0.00;0.00;;;;;;;6.65;100.00;99899.94;322027;30;1377;-73
2022/11/30 00:01:58;;;;;;;0.00;0.00;;;;;;;6.63;100.00;99896.50;320322;30;2117;-73
2022/11/30 00:02:08;;;;;;;0.00;0.00;;;;;;;6.62;100.00;99900.00;323411;30;904;-73
2022/11/30 00:02:18;;;;;;;0.53;0.37;;;;;;;6.62;100.00;99900.84;321742;30;2761;-73
2022/11/30 00:02:29;;;;;;;0.60;0.40;;;;;;;6.63;100.00;99896.50;318034;30;3190;-72
2022/11/30 00:02:39;;;;;;;0.50;0.40;;;;;;;6.62;100.00;99900.84;313217;31;3375;-73
2022/11/30 00:02:52;;;;;;;0.00;0.00;;;;;;;6.63;100.00;99901.72;311687;31;1046;-73
2022/11/30 00:03:03;;;;;;;0.00;0.00;;;;;;;6.63;100.00;99901.72;315256;31;3210;-73
2022/11/30 00:03:13;;;;;;;0.00;0.00;;;;;;;6.64;100.00;99904.28;314684;31;3377;-73
2022/11/30 00:03:24;;;;;;;0.00;0.00;;;;;;;6.63;100.00;99891.31;309400;31;3364;-73
2022/11/30 00:03:34;;;;;;;0.00;0.00;;;;;;;6.63;100.00;99899.09;311012;31;811;-73
2022/11/30 00:03:45;;;;;;;0.10;0.00;;;;;;;6.62;100.00;99900.00;309608;31;2579;-72
2022/11/30 00:03:56;;;;;;;0.10;0.00;;;;;;;6.62;100.00;99903.44;306049;31;2237;-73
2022/11/30 00:04:06;;;;;;;0.10;0.00;;;;;;;6.61;100.00;99900.88;308577;32;1022;-72
2022/11/30 00:04:17;;;;;;;0.00;0.00;;;;;;;6.62;100.00;99905.19;309838;31;2840;-73
2022/11/30 00:04:27;;;;;;;0.00;0.00;;;;;;;6.62;100.00;99905.19;307793;31;3644;-72
2022/11/30 00:04:37;;;;;;;0.00;0.00;;;;;;;6.61;100.00;99903.47;306517;32;958;-72
2022/11/30 00:04:48;;;;;;;0.00;0.00;;;;;;;6.61;100.00;99899.13;309496;31;4188;-72
2022/11/30 00:04:58;;;;;;;0.00;0.00;;;;;;;6.61;100.00;99909.53;310290;31;4632;-73
2022/11/30 00:05:09;;;;;;;0.00;0.00;;;;;;;6.60;100.00;99900.03;310558;31;4661;-73
2022/11/30 00:05:19;;;;;;;0.00;0.00;;;;;;;6.61;100.00;99906.09;301048;32;947;-73
2022/11/30 00:05:30;;;;;;;0.00;0.00;;;;;;;6.61;100.00;99903.47;300800;32;4501;-72
2022/11/30 00:05:40;;;;;;;0.00;0.00;;;;;;;6.60;100.00;99901.78;299110;32;4674;-72
2022/11/30 00:05:51;;;;;;;0.00;0.00;;;;;;;6.61;100.00;99903.47;301166;32;1174;-72
2022/11/30 00:06:09;;;;;;;0.00;0.00;;;;;;;6.60;100.00;99901.78;299414;32;3473;-72
2022/11/30 00:06:22;;;;;;;0.00;0.00;;;;;;;6.60;100.00;99902.63;295011;33;999;-72
2022/11/30 00:06:32;;;;;;;0.00;0.00;;;;;;;6.60;100.00;99901.78;296587;33;4068;-72
2022/11/30 00:06:42;;;;;;;0.00;0.00;;;;;;;6.60;100.00;99906.97;293981;33;5600;-72
2022/11/30 00:06:56;;;;;;;0.00;0.00;;;;;;;6.60;100.00;99899.16;294083;33;1078;-72
2022/11/30 00:07:06;;;;;;;0.00;0.00;;;;;;;6.59;100.00;99900.06;290303;34;1938;-72
2022/11/30 00:07:16;;;;;;;0.00;0.00;;;;;;;6.59;100.00;99906.13;288354;33;6720;-72
2022/11/30 00:07:27;;;;;;;0.00;0.00;;;;;;;6.59;100.00;99905.25;289771;33;6297;-72
2022/11/30 00:07:38;;;;;;;0.00;0.00;;;;;;;6.60;100.00;99896.56;293262;33;887;-73
2022/11/30 00:07:48;;;;;;;0.00;0.00;;;;;;;6.61;100.00;99900.88;288630;33;6138;-72
2022/11/30 00:08:02;;;;;;;0.00;0.00;;;;;;;6.60;100.00;99897.44;288763;33;6507;-72
2022/11/30 00:08:12;;;;;;;0.00;0.00;;;;;;;6.61;100.00;99898.28;290402;33;4894;-72
2022/11/30 00:08:25;;;;;;;0.00;0.00;;;;;;;6.61;100.00;99898.28;290205;34;1404;-73
2022/11/30 00:08:36;;;;;;;0.00;0.00;;;;;;;6.61;100.00;99898.28;288274;34;1355;-73
2022/11/30 00:08:46;;;;;;;0.00;0.00;;;;;;;6.60;100.00;99897.44;286116;34;6108;-72
2022/11/30 00:08:57;;;;;;;0.00;0.00;;;;;;;6.61;100.00;99896.53;285029;34;8512;-72
2022/11/30 00:09:07;;;;;;;0.00;0.00;;;;;;;6.61;100.00;99900.88;283769;34;888;-72
2022/11/30 00:09:17;;;;;;;0.00;0.00;;;;;;;6.59;100.00;99894.84;284456;34;8219;-72
2022/11/30 00:09:28;;;;;;;0.00;0.00;;;;;;;6.60;100.00;99897.44;282459;34;9359;-73
2022/11/30 00:09:38;;;;;;;0.00;0.00;;;;;;;6.60;100.00;99905.22;281820;35;1355;-73
2022/11/30 00:12:00;;;;;;;0.13;0.13;;;;;;;6.61;100.00;99900.88;2503276;27;20280;-72
2022/11/30 00:12:11;;;;;;;0.00;0.00;;;;;;;6.60;100.00;99896.56;350983;28;1702;-72
2022/11/30 00:12:21;;;;;;;0.00;0.00;;;;;;;6.61;100.00;99898.28;349616;28;831;-72
2022/11/30 00:12:32;;;;;;;0.00;0.00;;;;;;;6.61;100.00;99898.28;349024;28;877;-72
2022/11/30 00:12:42;;;;;;;0.00;0.00;;;;;;;6.61;100.00;99895.69;347553;28;1648;-72
2022/11/30 00:12:52;;;;;;;0.00;0.00;;;;;;;6.60;100.00;99902.63;349132;28;948;-73
2022/11/30 00:13:03;;;;;;;0.00;0.00;;;;;;;6.60;100.00;99899.16;350381;28;963;-72
2022/11/30 00:13:13;;;;;;;0.00;0.00;;;;;;;6.59;100.00;99900.06;349239;28;1490;-73
2022/11/30 00:13:24;;;;;;;0.00;0.00;;;;;;;6.59;100.00;99905.25;347458;28;1295;-72
2022/11/30 00:13:34;;;;;;;0.00;0.00;;;;;;;6.58;100.00;99900.94;346310;28;857;-73
2022/11/30 00:13:44;;;;;;;0.00;0.00;;;;;;;6.58;100.00;99906.13;349186;28;1789;-73
2022/11/30 00:13:55;;;;;;;0.00;0.00;;;;;;;6.58;100.00;99898.34;348157;28;1524;-74
2022/11/30 00:14:05;;;;;;;0.00;0.00;;;;;;;6.58;100.00;99903.53;349229;28;932;-73
2022/11/30 00:14:16;;;;;;;0.00;0.00;;;;;;;6.58;100.00;99898.34;347626;28;959;-73
2022/11/30 00:14:26;;;;;;;0.00;0.00;;;;;;;6.57;100.00;99902.69;348826;28;1296;-73
2022/11/30 00:14:36;;;;;;;0.00;0.00;;;;;;;6.57;100.00;99902.69;349069;28;963;-73
2022/11/30 00:14:47;;;;;;;0.00;0.00;;;;;;;6.58;100.00;99908.75;348907;28;1583;-73
2022/11/30 00:14:57;;;;;;;0.00;0.00;;;;;;;6.58;100.00;99907.00;348984;28;1225;-72
2022/11/30 00:15:12;;;;;;;0.00;0.00;;;;;;;6.59;100.00;99905.25;347672;28;1259;-72
2022/11/30 00:15:23;;;;;;;0.00;0.00;;;;;;;6.59;100.00;99900.06;348889;28;859;-72
2022/11/30 00:15:34;;;;;;;0.00;0.00;;;;;;;6.59;100.00;99900.06;347819;28;1977;-72
2022/11/30 00:15:45;;;;;;;0.00;0.00;;;;;;;6.59;100.00;99902.66;346297;28;936;-72
2022/11/30 00:16:00;;;;;;;0.00;0.00;;;;;;;6.60;100.00;99904.38;344667;28;1219;-72
2022/11/30 00:16:10;;;;;;;0.00;0.00;;;;;;;6.62;100.00;99907.78;343511;28;1331;-72
2022/11/30 00:16:20;;;;;;;0.00;0.00;;;;;;;6.60;100.00;99907.81;343592;28;1013;-73
2022/11/30 00:16:31;;;;;;;0.00;0.00;;;;;;;6.62;100.00;99907.78;343645;28;1081;-73
2022/11/30 00:16:41;;;;;;;0.00;0.00;;;;;;;6.62;100.00;99906.06;345906;28;976;-73
2022/11/30 00:16:51;;;;;;;0.00;0.00;;;;;;;6.62;100.00;99902.59;344976;28;1162;-74
2022/11/30 00:17:02;;;;;;;0.00;0.00;;;;;;;6.63;100.00;99901.72;343531;28;1207;-73
2022/11/30 00:17:13;;;;;;;0.00;0.00;;;;;;;6.62;100.00;99900.84;343317;28;2022;-73
2022/11/30 00:17:23;;;;;;;0.00;0.00;;;;;;;6.64;100.00;99900.81;342597;28;1630;-73
2022/11/30 00:17:34;;;;;;;0.00;0.00;;;;;;;6.63;100.00;99904.31;342276;28;993;-73
2022/11/30 00:17:45;;;;;;;0.00;0.00;;;;;;;6.63;100.00;99906.91;342597;28;924;-73
2022/11/30 00:17:56;;;;;;;0.00;0.00;;;;;;;6.63;100.00;99906.91;341476;28;1463;-73
2022/11/30 00:18:06;;;;;;;0.00;0.00;;;;;;;6.64;100.00;99911.22;341146;28;1507;-72
2022/11/30 00:18:16;;;;;;;0.00;0.00;;;;;;;6.63;100.00;99902.56;344936;28;838;-72
2022/11/30 00:18:27;;;;;;;0.00;0.00;;;;;;;6.63;100.00;99899.09;341012;28;1671;-72
2022/11/30 00:18:37;;;;;;;0.00;0.00;;;;;;;6.63;100.00;99901.72;340188;28;1215;-73
2022/11/30 00:18:48;;;;;;;0.00;0.00;;;;;;;6.63;100.00;99906.91;342285;28;1291;-72
2022/11/30 00:18:58;;;;;;;0.00;0.00;;;;;;;6.63;100.00;99902.56;339011;28;4249;-72
2022/11/30 00:19:09;;;;;;;0.00;0.00;;;;;;;6.63;100.00;99901.72;336213;29;5857;-73
2022/11/30 00:19:19;;;;;;;0.00;0.00;;;;;;;6.63;100.00;99901.72;342477;28;1310;-73
2022/11/30 00:19:29;;;;;;;0.00;0.00;;;;;;;6.63;100.00;99901.72;341993;28;1846;-72
2022/11/30 00:19:40;;;;;;;0.00;0.00;;;;;;;6.62;100.00;99900.84;343068;28;6023;-75
2022/11/30 00:19:50;;;;;;;0.00;0.00;;;;;;;6.64;100.00;99893.03;339503;29;1174;-74
2022/11/30 00:20:00;;;;;;;0.00;0.00;;;;;;;6.63;100.00;99901.72;343568;28;996;-73
2022/11/30 00:20:12;;;;;;;0.00;0.00;;;;;;;6.63;100.00;99896.50;341066;28;1383;-73
2022/11/30 00:20:23;;;;;;;0.00;0.00;;;;;;;6.63;100.00;99901.72;339289;28;1459;-73
2022/11/30 00:20:33;;;;;;;0.00;0.00;;;;;;;6.63;100.00;99901.72;338355;29;881;-73
2022/11/30 00:20:43;;;;;;;0.00;0.00;;;;;;;6.62;100.00;99898.25;341442;28;1834;-73
2022/11/30 00:20:56;;;;;;;0.00;0.00;;;;;;;6.63;100.00;99896.50;342406;28;1914;-74
2022/11/30 00:21:07;;;;;;;0.00;0.00;;;;;;;6.63;100.00;99901.72;343829;28;1080;-73
2022/11/30 00:21:18;;;;;;;0.00;0.00;;;;;;;6.62;100.00;99898.25;340974;29;960;-73
2022/11/30 00:21:28;;;;;;;0.00;0.00;;;;;;;6.61;100.00;99898.28;340645;29;1179;-73
2022/11/30 00:21:38;;;;;;;0.00;0.00;;;;;;;6.60;100.00;99896.56;340765;29;1032;-73
2022/11/30 00:21:49;;;;;;;0.00;0.00;;;;;;;6.59;100.00;99895.72;340854;29;901;-73
2022/11/30 00:21:59;;;;;;;0.00;0.00;;;;;;;6.59;100.00;99900.91;334450;29;1325;-73
2022/11/30 00:22:10;;;;;;;0.00;0.00;;;;;;;6.59;100.00;99895.72;333362;29;1789;-73
2022/11/30 00:22:20;;;;;;;0.00;0.00;;;;;;;6.60;100.00;99901.78;331358;29;1986;-73
2022/11/30 00:22:30;;;;;;;0.00;0.00;;;;;;;6.60;100.00;99896.56;328845;30;933;-73
2022/11/30 00:22:41;;;;;;;0.00;0.00;;;;;;;6.58;100.00;99893.13;329807;29;2121;-73
2022/11/30 00:22:51;;;;;;;0.00;0.00;;;;;;;6.58;100.00;99893.13;329189;29;2801;-73
2022/11/30 00:23:01;;;;;;;0.00;0.00;;;;;;;6.58;100.00;99898.34;327069;30;1313;-73
2022/11/30 00:23:12;;;;;;;0.00;0.00;;;;;;;6.59;100.00;99900.06;329720;29;1684;-73
2022/11/30 00:23:22;;;;;;;0.00;0.00;;;;;;;6.59;100.00;99894.84;329327;30;944;-73
2022/11/30 00:23:33;;;;;;;0.00;0.00;;;;;;;6.58;100.00;99893.13;328081;30;1199;-73
2022/11/30 00:23:45;;;;;;;0.00;0.00;;;;;;;6.59;100.00;99894.84;326809;30;1282;-73
2022/11/30 00:23:55;;;;;;;0.00;0.00;;;;;;;6.59;100.00;99895.72;327908;29;1663;-73
2022/11/30 00:24:06;;;;;;;0.00;0.00;;;;;;;6.59;100.00;99892.25;327419;29;2040;-73
2022/11/30 00:24:16;;;;;;;0.00;0.00;;;;;;;6.59;100.00;99900.06;328220;30;887;-73
2022/11/30 00:24:26;;;;;;;0.00;0.00;;;;;;;6.58;100.00;99898.34;326215;30;2179;-73
2022/11/30 00:24:37;;;;;;;0.00;0.00;;;;;;;6.58;100.00;99899.19;324795;30;2380;-73
2022/11/30 00:24:47;;;;;;;0.00;0.00;;;;;;;6.59;100.00;99898.31;327059;30;927;-73
2022/11/30 00:24:59;;;;;;;0.00;0.00;;;;;;;6.57;100.00;99897.47;328708;29;2781;-73
2022/11/30 00:25:09;;;;;;;0.00;0.00;;;;;;;6.59;100.00;99897.44;324783;30;2847;-73
2022/11/30 00:25:20;;;;;;;0.00;0.00;;;;;;;6.58;100.00;99899.19;324456;30;2097;-73
2022/11/30 00:25:30;;;;;;;0.00;0.00;;;;;;;6.57;100.00;99896.63;326906;30;1263;-73
2022/11/30 00:25:40;;;;;;;0.00;0.00;;;;;;;6.57;100.00;99899.22;326618;30;1429;-73
2022/11/30 00:25:51;;;;;;;0.00;0.00;;;;;;;6.58;100.00;99898.34;323335;30;1940;-73
2022/11/30 00:26:02;;;;;;;0.00;0.00;;;;;;;6.58;100.00;99898.34;320974;30;1218;-73
2022/11/30 00:26:14;;;;;;;0.00;0.00;;;;;;;6.58;100.00;99893.13;316512;30;2473;-73
2022/11/30 00:26:24;;;;;;;0.00;0.00;;;;;;;6.58;100.00;99898.34;317018;30;2760;-73
2022/11/30 00:26:35;;;;;;;0.00;0.00;;;;;;;6.58;100.00;99898.34;316840;31;2939;-73
2022/11/30 00:26:45;;;;;;;0.00;0.00;;;;;;;6.58;100.00;99898.34;316408;31;987;-73
2022/11/30 00:26:56;;;;;;;0.00;0.00;;;;;;;6.58;100.00;99903.53;316018;30;3591;-73
2022/11/30 00:27:06;;;;;;;0.00;0.00;;;;;;;6.59;100.00;99900.06;317217;30;3630;-73
2022/11/30 00:27:17;;;;;;;0.00;0.00;;;;;;;6.57;100.00;99899.22;317300;31;1691;-73
2022/11/30 00:27:28;;;;;;;0.00;0.00;;;;;;;6.58;100.00;99900.94;314988;31;3477;-73
2022/11/30 00:27:38;;;;;;;0.00;0.00;;;;;;;6.58;100.00;99898.34;311196;31;2510;-73
2022/11/30 00:27:48;;;;;;;0.00;0.00;;;;;;;6.59;100.00;99894.84;310671;31;1204;-73
2022/11/30 00:27:59;;;;;;;0.00;0.00;;;;;;;6.58;100.00;99899.19;315625;31;1886;-73
2022/11/30 00:28:10;;;;;;;0.00;0.00;;;;;;;6.58;100.00;99899.19;314344;30;5256;-73
2022/11/30 00:28:21;;;;;;;0.00;0.00;;;;;;;6.60;100.00;99901.78;314766;31;6237;-73
2022/11/30 00:28:31;;;;;;;0.00;0.00;;;;;;;6.59;100.00;99900.91;312989;31;873;-73
2022/11/30 00:28:44;;;;;;;0.00;0.00;;;;;;;6.59;100.00;99903.50;311795;31;3559;-73
2022/11/30 00:28:54;;;;;;;0.00;0.00;;;;;;;6.61;100.00;99906.09;310909;31;3926;-73
2022/11/30 00:29:04;;;;;;;0.00;0.00;;;;;;;6.60;100.00;99901.78;310031;31;4525;-73
2022/11/30 00:29:15;;;;;;;0.00;0.00;;;;;;;6.59;100.00;99900.91;308991;31;1779;-73
2022/11/30 00:29:25;;;;;;;0.00;0.00;;;;;;;6.60;100.00;99902.63;304178;32;4842;-73
2022/11/30 00:29:35;;;;;;;0.00;0.00;;;;;;;6.60;100.00;99897.44;304228;32;5023;-73
2022/11/30 00:29:46;;;;;;;0.00;0.00;;;;;;;6.61;100.00;99903.47;307502;32;1377;-73
2022/11/30 00:29:57;;;;;;;0.00;0.00;;;;;;;6.61;100.00;99903.47;304527;32;3495;-74
2022/11/30 00:30:08;;;;;;;0.00;0.00;;;;;;;6.61;100.00;99903.47;303678;31;3173;-73
2022/11/30 00:30:18;;;;;;;0.00;0.00;;;;;;;6.59;100.00;99903.50;307553;32;915;-73
2022/11/30 00:30:29;;;;;;;0.00;0.00;;;;;;;6.59;100.00;99902.66;304321;32;4014;-73
2022/11/30 00:30:39;;;;;;;0.00;0.00;;;;;;;6.60;100.00;99901.78;305062;32;5389;-73
2022/11/30 00:30:59;;;;;;;0.00;0.00;;;;;;;6.60;100.00;99899.16;307084;31;4846;-73
2022/11/30 00:31:11;;;;;;;0.00;0.00;;;;;;;6.59;100.00;99900.06;301959;32;5230;-74
2022/11/30 00:31:23;;;;;;;0.00;0.00;;;;;;;6.59;100.00;99897.44;301763;32;6281;-76
2022/11/30 00:31:34;;;;;;;0.00;0.00;;;;;;;6.59;100.00;99900.91;301708;32;1346;-74
2022/11/30 00:31:45;;;;;;;0.00;0.00;;;;;;;6.59;100.00;99900.06;301296;32;6901;-73
2022/11/30 00:31:55;;;;;;;0.08;0.00;;;;;;;6.59;100.00;99905.25;301984;32;7238;-73
2022/11/30 00:32:05;;;;;;;0.25;0.00;;;;;;;6.59;100.00;99902.66;301923;32;5234;-73
2022/11/30 00:32:16;;;;;;;0.30;0.00;;;;;;;6.59;100.00;99905.25;299330;32;1713;-74
2022/11/30 00:32:26;;;;;;;0.20;0.00;;;;;;;6.58;100.00;99903.53;294280;33;4609;-73
2022/11/30 00:32:36;;;;;;;0.00;0.00;;;;;;;6.58;100.00;99903.53;289020;33;6157;-73
2022/11/30 00:32:47;;;;;;;0.00;0.00;;;;;;;6.59;100.00;99897.44;293518;33;1256;-73
2022/11/30 00:32:57;;;;;;;0.00;0.00;;;;;;;6.59;100.00;99900.06;288323;34;8042;-73
2022/11/30 00:34:51;;;;;;;0.31;0.31;;;;;;;6.59;100.00;99894.84;2503012;27;20772;-73
2022/11/30 00:35:01;;;;;;;0.00;0.00;;;;;;;6.58;100.00;99898.34;355799;27;1812;-72
2022/11/30 00:35:11;;;;;;;0.00;0.00;;;;;;;6.56;100.00;99885.38;352300;28;1592;-73
2022/11/30 00:35:22;;;;;;;0.00;0.00;;;;;;;6.57;100.00;99894.03;353304;28;941;-73
2022/11/30 00:35:32;;;;;;;0.00;0.00;;;;;;;6.58;100.00;99900.94;350491;28;913;-72
2022/11/30 00:35:42;;;;;;;0.00;0.00;;;;;;;6.58;100.00;99895.75;347452;28;820;-72
2022/11/30 00:36:20;;;;;;;0.10;0.00;;;;;;;6.56;100.00;99890.56;347644;28;1014;-72
2022/11/30 00:36:31;;;;;;;0.10;0.00;;;;;;;6.58;100.00;99894.00;348790;28;1454;-74
2022/11/30 00:36:41;;;;;;;0.00;0.00;;;;;;;6.57;100.00;99896.63;348864;28;1713;-73
2022/11/30 00:36:52;;;;;;;0.00;0.00;;;;;;;6.57;100.00;99894.03;347704;28;919;-73
2022/11/30 00:37:02;;;;;;;0.00;0.00;;;;;;;6.57;100.00;99891.44;346110;28;1350;-73
2022/11/30 00:37:13;;;;;;;0.00;0.00;;;;;;;6.58;100.00;99898.34;344860;28;1887;-73
2022/11/30 00:37:24;;;;;;;0.03;0.00;;;;;;;6.58;100.00;99894.00;342060;28;5816;-72
2022/11/30 00:37:34;;;;;;;0.10;0.00;;;;;;;6.58;100.00;99896.59;344136;28;6210;-72
2022/11/30 00:37:44;;;;;;;0.10;0.07;;;;;;;6.60;100.00;99893.97;343531;28;1869;-72
2022/11/30 00:37:55;;;;;;;0.03;0.00;;;;;;;6.59;100.00;99900.06;344474;28;5781;-73
2022/11/30 00:38:05;;;;;;;0.00;0.00;;;;;;;6.57;100.00;99891.44;343988;28;1369;-73
2022/11/30 00:38:16;;;;;;;0.00;0.00;;;;;;;6.56;100.00;99895.78;344386;28;1368;-72
2022/11/30 00:38:26;;;;;;;0.20;0.00;;;;;;;6.58;100.00;99893.13;344421;28;1824;-72
2022/11/30 00:38:36;;;;;;;0.20;0.07;;;;;;;6.58;100.00;99895.75;343443;28;1217;-72
2022/11/30 00:38:47;;;;;;;0.20;0.00;;;;;;;6.58;100.00;99890.53;344237;28;1510;-72
2022/11/30 00:38:57;;;;;;;0.00;0.00;;;;;;;6.57;100.00;99896.63;346272;28;1003;-72
2022/11/30 00:39:08;;;;;;;0.00;0.00;;;;;;;6.58;100.00;99898.34;345590;28;1484;-73
2022/11/30 00:39:18;;;;;;;0.00;0.00;;;;;;;6.58;100.00;99894.00;343161;28;1065;-73
2022/11/30 00:39:29;;;;;;;0.00;0.00;;;;;;;6.58;100.00;99894.00;342694;28;1014;-73
2022/11/30 00:39:39;;;;;;;0.00;0.00;;;;;;;6.58;100.00;99894.00;346284;28;1357;-72
2022/11/30 00:39:49;;;;;;;0.00;0.00;;;;;;;6.58;100.00;99898.34;346297;28;972;-73
2022/11/30 00:40:00;;;;;;;0.00;0.00;;;;;;;6.58;100.00;99899.19;346484;28;846;-73
2022/11/30 00:40:11;;;;;;;0.00;0.00;;;;;;;6.59;100.00;99894.84;346950;28;1721;-73
2022/11/30 00:40:21;;;;;;;0.00;0.00;;;;;;;6.59;100.00;99894.84;349016;28;1591;-73
2022/11/30 00:40:32;;;;;;;0.00;0.00;;;;;;;6.58;100.00;99898.34;349148;28;1188;-73
2022/11/30 00:40:42;;;;;;;0.00;0.00;;;;;;;6.58;100.00;99894.00;347946;28;1516;-73
2022/11/30 00:40:52;;;;;;;0.00;0.00;;;;;;;6.59;100.00;99897.44;349069;28;947;-73
2022/11/30 00:41:03;;;;;;;0.00;0.00;;;;;;;6.58;100.00;99899.19;350843;28;1166;-73
2022/11/30 00:41:13;;;;;;;0.00;0.00;;;;;;;6.58;100.00;99894.00;347451;28;1189;-73
2022/11/30 00:41:24;;;;;;;0.00;0.00;;;;;;;6.60;100.00;99899.16;347636;28;879;-74
2022/11/30 00:41:34;;;;;;;0.00;0.00;;;;;;;6.60;100.00;99896.56;348766;28;1405;-73
2022/11/30 00:41:44;;;;;;;0.00;0.00;;;;;;;6.59;100.00;99895.72;346273;28;1320;-73
2022/11/30 00:41:55;;;;;;;0.00;0.00;;;;;;;6.60;100.00;99896.56;343541;28;1730;-73
2022/11/30 00:42:05;;;;;;;0.00;0.00;;;;;;;6.59;100.00;99897.44;344991;28;846;-75
2022/11/30 00:42:16;;;;;;;0.00;0.00;;;;;;;6.60;100.00;99897.44;346368;28;1969;-72
2022/11/30 00:42:26;;;;;;;0.00;0.00;;;;;;;6.61;100.00;99893.09;349091;28;1555;-73
2022/11/30 00:42:36;;;;;;;0.00;0.00;;;;;;;6.61;100.00;99893.09;344935;28;933;-73
2022/11/30 00:42:47;;;;;;;0.00;0.00;;;;;;;6.61;100.00;99893.94;342879;28;1254;-73
2022/11/30 00:42:57;;;;;;;0.00;0.00;;;;;;;6.60;100.00;99893.97;341077;28;1713;-73
2022/11/30 00:43:08;;;;;;;0.00;0.00;;;;;;;6.61;100.00;99893.09;340102;29;1194;-73
2022/11/30 00:43:18;;;;;;;0.00;0.00;;;;;;;6.60;100.00;99893.97;337857;29;1387;-74
2022/11/30 00:43:28;;;;;;;0.00;0.00;;;;;;;6.60;100.00;99892.22;336987;29;1455;-74
2022/11/30 00:43:39;;;;;;;0.00;0.00;;;;;;;6.61;100.00;99893.09;336906;29;1919;-74
2022/11/30 00:43:49;;;;;;;0.00;0.00;;;;;;;6.60;100.00;99891.38;337898;29;1392;-73
2022/11/30 00:44:00;;;;;;;0.00;0.00;;;;;;;6.60;100.00;99896.56;335737;29;1469;-73
2022/11/30 00:44:10;;;;;;;0.00;0.00;;;;;;;6.60;100.00;99891.38;336901;29;1696;-73
2022/11/30 00:44:20;;;;;;;0.00;0.00;;;;;;;6.60;100.00;99891.38;336925;29;1544;-73
2022/11/30 00:44:31;;;;;;;0.00;0.00;;;;;;;6.60;100.00;99897.44;336007;29;1466;-73
2022/11/30 00:44:41;;;;;;;0.00;0.00;;;;;;;6.61;100.00;99887.88;334237;29;1599;-72
2022/11/30 00:44:51;;;;;;;0.00;0.00;;;;;;;6.60;100.00;99892.22;335684;29;984;-73
2022/11/30 00:45:02;;;;;;;0.00;0.00;;;;;;;6.61;100.00;99890.47;331522;29;2036;-72
2022/11/30 00:45:12;;;;;;;0.00;0.00;;;;;;;6.62;100.00;99894.78;330015;29;2225;-72
2022/11/30 00:45:23;;;;;;;0.00;0.00;;;;;;;6.62;100.00;99887.84;332136;29;1332;-72
2022/11/30 00:45:33;;;;;;;0.00;0.00;;;;;;;6.61;100.00;99893.09;332374;29;1824;-72
2022/11/30 00:45:43;;;;;;;0.00;0.00;;;;;;;6.63;100.00;99896.50;334144;29;1865;-72
2022/11/30 00:45:54;;;;;;;0.00;0.00;;;;;;;6.62;100.00;99894.78;331899;29;1315;-72
2022/11/30 00:46:05;;;;;;;0.00;0.00;;;;;;;6.62;100.00;99894.78;333011;29;1577;-72
2022/11/30 00:46:15;;;;;;;0.00;0.00;;;;;;;6.62;100.00;99889.59;330512;29;1229;-73
2022/11/30 00:46:25;;;;;;;0.00;0.00;;;;;;;6.61;100.00;99901.75;331266;29;3737;-72
2022/11/30 00:46:36;;;;;;;0.00;0.00;;;;;;;6.61;100.00;99893.09;328078;29;5755;-72
2022/11/30 00:46:46;;;;;;;0.00;0.00;;;;;;;6.61;100.00;99893.09;327844;29;5935;-72
2022/11/30 00:46:56;;;;;;;0.00;0.00;;;;;;;6.61;100.00;99895.69;328917;29;2442;-72
2022/11/30 00:47:07;;;;;;;0.00;0.00;;;;;;;6.60;100.00;99893.97;326473;30;5846;-73
2022/11/30 00:47:17;;;;;;;0.00;0.00;;;;;;;6.60;100.00;99893.97;325366;30;2667;-73
2022/11/30 00:47:28;;;;;;;0.00;0.00;;;;;;;6.60;100.00;99891.38;324903;29;3278;-73
2022/11/30 00:47:38;;;;;;;0.00;0.00;;;;;;;6.59;100.00;99894.84;329439;30;934;-72
2022/11/30 00:47:48;;;;;;;0.00;0.00;;;;;;;6.58;100.00;99886.19;331939;29;2469;-72
2022/11/30 00:47:59;;;;;;;0.00;0.00;;;;;;;6.58;100.00;99888.78;330282;29;2348;-72
2022/11/30 00:48:09;;;;;;;0.00;0.00;;;;;;;6.60;100.00;99893.97;324425;30;1353;-72
2022/11/30 00:48:19;;;;;;;0.00;0.00;;;;;;;6.60;100.00;99891.38;327293;30;2014;-72
2022/11/30 00:48:30;;;;;;;0.00;0.00;;;;;;;6.59;100.00;99890.50;326195;30;1375;-72
2022/11/30 00:48:40;;;;;;;0.00;0.00;;;;;;;6.60;100.00;99893.97;325832;30;2126;-73
2022/11/30 00:48:51;;;;;;;0.00;0.00;;;;;;;6.60;100.00;99888.78;324474;30;1688;-73
2022/11/30 00:49:01;;;;;;;0.00;0.00;;;;;;;6.59;100.00;99894.84;325789;30;2516;-72
2022/11/30 00:49:11;;;;;;;0.00;0.00;;;;;;;6.59;100.00;99890.50;325339;30;3173;-72
2022/11/30 00:49:22;;;;;;;0.00;0.00;;;;;;;6.59;100.00;99890.50;322782;30;1330;-72
2022/11/30 00:49:35;;;;;;;0.00;0.00;;;;;;;6.59;100.00;99893.09;322485;30;3632;-73
2022/11/30 00:49:45;;;;;;;0.00;0.00;;;;;;;6.60;100.00;99893.97;321661;30;3521;-72
2022/11/30 00:49:56;;;;;;;0.00;0.00;;;;;;;6.60;100.00;99891.38;320073;30;3110;-72
2022/11/30 00:50:07;;;;;;;0.05;0.00;;;;;;;6.60;100.00;99892.22;315279;31;944;-72
2022/11/30 00:50:17;;;;;;;0.00;0.00;;;;;;;6.60;100.00;99884.41;321355;30;3021;-72
2022/11/30 00:50:27;;;;;;;0.00;0.00;;;;;;;6.60;100.00;99891.38;320933;30;2279;-72
2022/11/30 00:50:38;;;;;;;0.00;0.00;;;;;;;6.60;100.00;99891.38;322259;30;850;-72
2022/11/30 00:50:48;;;;;;;0.00;0.00;;;;;;;6.60;100.00;99896.56;321319;30;2299;-72
2022/11/30 00:50:59;;;;;;;0.00;0.00;;;;;;;6.60;100.00;99889.63;320074;30;3189;-72
2022/11/30 00:51:10;;;;;;;0.00;0.00;;;;;;;6.60;100.00;99891.38;318735;31;1011;-72
2022/11/30 00:51:20;;;;;;;0.00;0.00;;;;;;;6.60;100.00;99886.16;316382;31;1570;-73
2022/11/30 00:51:30;;;;;;;0.00;0.00;;;;;;;6.59;100.00;99889.66;314060;31;4902;-72
2022/11/30 00:51:41;;;;;;;0.00;0.00;;;;;;;6.60;100.00;99886.16;308723;31;4675;-72
2022/11/30 00:51:51;;;;;;;0.00;0.00;;;;;;;6.59;100.00;99893.09;309784;31;879;-72
2022/11/30 00:52:02;;;;;;;0.00;0.00;;;;;;;6.59;100.00;99889.66;308633;31;5053;-72
2022/11/30 00:52:12;;;;;;;0.00;0.00;;;;;;;6.59;100.00;99893.09;306244;31;4442;-72
2022/11/30 00:52:23;;;;;;;0.00;0.00;;;;;;;6.60;100.00;99888.78;307511;32;957;-72
2022/11/30 00:52:33;;;;;;;0.00;0.00;;;;;;;6.60;100.00;99891.38;307649;31;4351;-72
2022/11/30 00:52:43;;;;;;;0.00;0.00;;;;;;;6.61;100.00;99893.09;308190;31;3385;-73
2022/11/30 00:52:54;;;;;;;0.00;0.00;;;;;;;6.61;100.00;99877.47;311957;31;953;-72
2022/11/30 00:53:04;;;;;;;0.00;0.00;;;;;;;6.61;100.00;99888.75;308114;31;3678;-72
2022/11/30 00:53:15;;;;;;;0.00;0.00;;;;;;;6.61;100.00;99886.13;307177;32;5233;-72
2022/11/30 00:53:26;;;;;;;0.00;0.00;;;;;;;6.62;100.00;99889.59;305899;31;6935;-72
2022/11/30 00:53:36;;;;;;;0.15;0.03;;;;;;;6.62;100.00;99895.66;308724;32;1229;-72
2022/11/30 00:53:47;;;;;;;0.40;0.10;;;;;;;6.61;100.00;99888.75;302847;32;6800;-72
2022/11/30 00:53:57;;;;;;;0.60;0.20;;;;;;;6.62;100.00;99885.25;301369;32;6397;-72
2022/11/30 00:54:08;;;;;;;0.32;0.03;;;;;;;6.61;100.00;99887.88;305471;32;877;-72
2022/11/30 00:54:18;;;;;;;0.40;0.10;;;;;;;6.61;100.00;99887.88;305171;32;6269;-72
2022/11/30 00:54:28;;;;;;;0.40;0.10;;;;;;;6.61;100.00;99887.88;301841;32;6177;-72
2022/11/30 00:54:39;;;;;;;0.40;0.10;;;;;;;6.61;100.00;99885.28;302226;32;1218;-72
2022/11/30 00:54:49;;;;;;;0.10;0.00;;;;;;;6.60;100.00;99880.97;301212;32;6168;-72
2022/11/30 00:54:59;;;;;;;0.00;0.00;;;;;;;6.58;100.00;99885.34;299843;32;4487;-72
2022/11/30 00:55:10;;;;;;;0.00;0.00;;;;;;;6.59;100.00;99884.47;298266;32;5008;-72
2022/11/30 00:55:20;;;;;;;0.00;0.00;;;;;;;6.58;100.00;99886.19;301259;32;888;-72
2022/11/30 00:55:32;;;;;;;0.20;0.10;;;;;;;6.59;100.00;99889.66;295725;33;6886;-73
2022/11/30 00:55:42;;;;;;;0.20;0.08;;;;;;;6.59;100.00;99889.66;291290;33;9946;-72
2022/11/30 00:55:53;;;;;;;0.17;0.05;;;;;;;6.60;100.00;99886.16;292444;33;3366;-72
2022/11/30 00:56:03;;;;;;;0.40;0.20;;;;;;;6.59;100.00;99879.25;293225;33;9973;-72